createdAt,value
2022-11-01T00:00:29.159Z,4.27
2022-11-01T00:05:33.788Z,4.60
2022-11-01T00:10:36.886Z,4.50
2022-11-01T00:15:40.014Z,3.90
2022-11-01T00:20:44.479Z,5.27
2022-11-01T00:25:47.739Z,4.13
2022-11-01T00:30:53.931Z,4.70
2022-11-01T00:36:01.881Z,4.90
2022-11-01T00:41:05.946Z,4.60
2022-11-01T00:46:09.760Z,4.13
2022-11-01T00:51:14.213Z,4.63
2022-11-01T00:56:17.558Z,4.43
2022-11-01T01:01:20.698Z,4.20
2022-11-01T01:06:25.251Z,4.83
2022-11-01T01:11:28.446Z,4.00
2022-11-01T01:16:31.795Z,4.83
2022-11-01T01:21:36.290Z,3.87
2022-11-01T01:26:39.548Z,4.50
2022-11-01T01:31:42.618Z,4.40
2022-11-01T01:36:48.724Z,4.53
2022-11-01T01:42:00.720Z,5.13
2022-11-01T01:47:03.856Z,4.63
2022-11-01T01:52:08.583Z,4.53
2022-11-01T01:57:12.378Z,5.37
2022-11-01T02:02:15.768Z,4.77
2022-11-01T02:07:20.255Z,3.80
2022-11-01T02:12:26.090Z,4.27
2022-11-01T02:17:37.479Z,3.80
2022-11-01T02:23:09.227Z,4.00
2022-11-01T02:28:31.143Z,4.30
2022-11-01T02:33:42.100Z,3.53
2022-11-01T02:38:49.889Z,4.07
2022-11-01T02:43:59.130Z,3.90
2022-11-01T02:49:04.711Z,3.77
2022-11-01T02:54:08.845Z,3.77
2022-11-01T02:59:19.200Z,4.10
2022-11-01T03:04:23.775Z,4.10
2022-11-01T03:09:28.500Z,3.77
2022-11-01T03:14:38.518Z,3.70
2022-11-01T03:19:47.914Z,3.90
2022-11-01T03:24:55.970Z,3.53
2022-11-01T03:30:02.463Z,3.50
2022-11-01T03:35:12.086Z,3.90
2022-11-01T03:40:18.406Z,4.00
2022-11-01T03:45:25.791Z,4.00
2022-11-01T03:50:31.061Z,4.37
2022-11-01T03:55:34.135Z,4.37
2022-11-01T04:00:39.691Z,3.63
2022-11-01T04:05:44.571Z,3.53
2022-11-01T04:10:47.655Z,4.57
2022-11-01T04:16:08.250Z,4.73
2022-11-01T04:21:15.600Z,4.33
2022-11-01T04:26:20.640Z,5.20
2022-11-01T04:31:24.158Z,5.30
2022-11-01T04:36:28.874Z,4.60
2022-11-01T04:41:31.943Z,4.60
2022-11-01T04:46:35.007Z,5.40
2022-11-01T04:51:41.532Z,5.40
2022-11-01T04:56:44.800Z,4.70
2022-11-01T05:01:47.961Z,5.33
2022-11-01T05:06:52.511Z,4.67
2022-11-01T05:11:55.571Z,4.80
2022-11-01T05:16:58.773Z,3.87
2022-11-01T05:22:03.198Z,3.70
2022-11-01T05:27:06.289Z,4.20
2022-11-01T05:32:09.350Z,3.80
2022-11-01T05:37:15.803Z,4.80
2022-11-01T05:42:18.867Z,4.03
2022-11-01T05:47:21.971Z,3.33
2022-11-01T05:52:26.383Z,3.37
2022-11-01T05:57:33.241Z,3.63
2022-11-01T06:02:36.737Z,3.53
2022-11-01T06:07:41.232Z,4.00
2022-11-01T06:12:44.400Z,4.43
2022-11-01T06:17:47.463Z,3.67
2022-11-01T06:22:51.928Z,3.40
2022-11-01T06:27:55.431Z,3.90
2022-11-01T06:33:01.879Z,4.03
2022-11-01T06:38:08.370Z,4.37
2022-11-01T06:43:11.432Z,3.80
2022-11-01T06:48:14.495Z,3.67
2022-11-01T06:53:18.947Z,4.20
2022-11-01T06:58:22.253Z,3.70
2022-11-01T07:03:25.323Z,3.67
2022-11-01T07:08:29.772Z,3.33
2022-11-01T07:13:33.982Z,3.93
2022-11-01T07:18:37.079Z,3.67
2022-11-01T07:23:41.512Z,3.37
2022-11-01T07:28:44.622Z,3.60
2022-11-01T07:33:47.696Z,3.50
2022-11-01T07:38:52.128Z,4.43
2022-11-01T07:43:55.175Z,4.30
2022-11-01T07:49:00.427Z,4.83
2022-11-01T07:54:04.998Z,4.33
2022-11-01T07:59:09.699Z,4.87
2022-11-01T08:04:12.995Z,4.77
2022-11-01T08:09:17.447Z,4.77
2022-11-01T08:14:20.511Z,4.57
2022-11-01T08:19:23.710Z,4.60
2022-11-01T08:24:28.545Z,5.23
2022-11-01T08:29:31.619Z,5.30
2022-11-01T08:34:34.692Z,5.90
2022-11-01T08:39:39.138Z,5.40
2022-11-01T08:44:42.257Z,5.53
2022-11-01T08:49:45.743Z,5.20
2022-11-01T08:54:50.195Z,6.00
2022-11-01T08:59:53.292Z,5.73
2022-11-01T09:04:56.400Z,6.53
2022-11-01T09:10:00.875Z,6.50
2022-11-01T09:15:04.135Z,6.63
2022-11-01T09:20:09.438Z,6.53
2022-11-01T09:25:13.918Z,6.07
2022-11-01T09:30:17.198Z,6.07
2022-11-01T09:35:20.298Z,6.43
2022-11-01T09:40:24.930Z,5.87
2022-11-01T09:45:30.479Z,6.60
2022-11-01T09:50:37.714Z,6.47
2022-11-01T09:55:49.755Z,6.00
2022-11-01T10:01:01.686Z,6.13
2022-11-01T10:06:13.619Z,6.07
2022-11-01T10:11:39.244Z,6.37
2022-11-01T10:16:48.863Z,6.80
2022-11-01T10:21:54.524Z,6.77
2022-11-01T10:27:19.247Z,6.03
2022-11-01T10:32:31.740Z,7.17
2022-11-01T10:37:51.786Z,6.40
2022-11-01T10:43:14.475Z,6.60
2022-11-01T10:48:27.709Z,6.43
2022-11-01T10:53:33.761Z,6.87
2022-11-01T10:58:42.514Z,6.47
2022-11-01T11:03:46.917Z,6.30
2022-11-01T11:08:52.747Z,6.47
2022-11-01T11:13:58.616Z,6.27
2022-11-01T11:19:03.406Z,6.13
2022-11-01T11:24:06.981Z,6.00
2022-11-01T11:29:36.668Z,6.57
2022-11-01T11:34:40.018Z,6.50
2022-11-01T11:39:59.312Z,6.53
2022-11-01T11:45:29.707Z,6.60
2022-11-01T11:50:34.712Z,7.00
2022-11-01T11:55:44.024Z,6.80
2022-11-01T12:00:53.284Z,6.27
2022-11-01T12:05:59.900Z,6.43
2022-11-01T12:11:03.603Z,6.10
2022-11-01T12:16:20.184Z,6.20
2022-11-01T12:21:27.267Z,6.60
2022-11-01T12:26:32.429Z,6.30
2022-11-01T12:31:37.775Z,5.70
2022-11-01T12:36:46.296Z,6.30
2022-11-01T12:41:53.774Z,4.93
2022-11-01T12:47:05.331Z,6.47
2022-11-01T12:52:16.600Z,4.97
2022-11-01T12:57:20.085Z,5.03
2022-11-01T13:02:47.533Z,4.73
2022-11-01T13:08:01.847Z,4.53
2022-11-01T13:13:15.485Z,4.77
2022-11-01T13:18:33.441Z,5.07
2022-11-01T13:23:38.790Z,4.43
2022-11-01T13:29:03.888Z,4.90
2022-11-01T13:34:29.471Z,5.10
2022-11-01T13:39:44.301Z,5.87
2022-11-01T13:44:51.922Z,5.90
2022-11-01T13:50:22.886Z,5.00
2022-11-01T13:55:36.417Z,5.63
2022-11-01T14:00:42.965Z,5.77
2022-11-01T14:05:49.027Z,6.63
2022-11-01T14:10:52.450Z,4.97
2022-11-01T14:16:04.484Z,5.13
2022-11-01T14:21:28.636Z,4.27
2022-11-01T14:26:49.359Z,5.63
2022-11-01T14:31:53.761Z,5.33
2022-11-01T14:37:01.860Z,9.27
2022-11-01T14:42:10.739Z,9.60
2022-11-01T14:47:26.229Z,10.57
2022-11-01T14:52:37.623Z,11.77
2022-11-01T14:57:40.695Z,9.63
2022-11-01T15:02:44.556Z,7.30
2022-11-01T15:07:53.698Z,7.07
2022-11-01T15:12:59.707Z,10.07
2022-11-01T15:18:06.192Z,8.43
2022-11-01T15:23:12.755Z,8.87
2022-11-01T15:28:23.011Z,7.47
2022-11-01T15:33:30.698Z,6.80
2022-11-01T15:38:49.240Z,6.67
2022-11-01T15:43:53.434Z,7.43
2022-11-01T15:48:59.255Z,13.07
2022-11-01T15:54:08.181Z,11.73
2022-11-01T15:59:19.833Z,9.47
2022-11-01T16:04:25.078Z,6.40
2022-11-01T16:09:38.508Z,5.87
2022-11-01T16:14:42.107Z,5.00
2022-11-01T16:19:48.344Z,4.67
2022-11-01T16:25:02.569Z,4.57
2022-11-01T16:30:10.494Z,11.00
2022-11-01T16:35:31.902Z,7.87
2022-11-01T16:40:38.945Z,5.23
2022-11-01T16:45:42.164Z,5.00
2022-11-01T16:50:45.209Z,5.30
2022-11-01T16:55:49.810Z,6.13
2022-11-01T17:00:55.032Z,6.23
2022-11-01T17:05:58.664Z,6.33
2022-11-01T17:11:03.111Z,7.03
2022-11-01T17:16:07.495Z,7.43
2022-11-01T17:21:11.700Z,7.73
2022-11-01T17:26:18.230Z,8.03
2022-11-01T17:31:21.292Z,7.33
2022-11-01T17:36:24.331Z,6.73
2022-11-01T17:41:28.789Z,6.43
2022-11-01T17:46:31.871Z,6.87
2022-11-01T17:51:35.212Z,6.37
2022-11-01T17:56:39.716Z,6.60
2022-11-01T18:01:45.366Z,6.37
2022-11-01T18:06:48.687Z,12.50
2022-11-01T18:12:01.683Z,8.90
2022-11-01T18:17:19.179Z,8.23
2022-11-01T18:22:32.673Z,9.53
2022-11-01T18:27:38.911Z,8.40
2022-11-01T18:32:48.522Z,8.67
2022-11-01T18:38:04.047Z,8.43
2022-11-01T18:43:10.155Z,8.83
2022-11-01T18:48:19.844Z,14.10
2022-11-01T18:53:22.917Z,15.23
2022-11-01T18:58:29.957Z,14.80
2022-11-01T19:03:33.270Z,12.23
2022-11-01T19:08:36.788Z,11.27
2022-11-01T19:13:41.679Z,8.70
2022-11-01T19:18:45.800Z,9.53
2022-11-01T19:23:50.926Z,8.23
2022-11-01T19:28:55.394Z,7.43
2022-11-01T19:34:03.413Z,7.87
2022-11-01T19:39:22.521Z,7.63
2022-11-01T19:44:27.583Z,7.57
2022-11-01T19:49:31.330Z,6.63
2022-11-01T19:54:36.914Z,7.07
2022-11-01T19:59:41.347Z,7.77
2022-11-01T20:04:44.559Z,8.20
2022-11-01T20:09:49.186Z,8.47
2022-11-01T20:14:53.751Z,10.00
2022-11-01T20:19:56.832Z,9.07
2022-11-01T20:25:00.793Z,9.60
2022-11-01T20:30:05.958Z,10.17
2022-11-01T20:35:10.965Z,10.87
2022-11-01T20:40:14.311Z,9.20
2022-11-01T20:45:18.871Z,8.47
2022-11-01T20:50:22.044Z,9.07
2022-11-01T20:55:25.131Z,7.60
2022-11-01T21:00:29.590Z,6.50
2022-11-01T21:05:36.680Z,7.93
2022-11-01T21:10:41.015Z,8.43
2022-11-01T21:15:46.775Z,9.30
2022-11-01T21:20:50.531Z,8.87
2022-11-01T21:25:57.776Z,7.70
2022-11-01T21:31:18.587Z,7.70
2022-11-01T21:36:30.954Z,7.80
2022-11-01T21:41:38.866Z,6.50
2022-11-01T21:46:47.526Z,5.93
2022-11-01T21:51:50.686Z,5.50
2022-11-01T21:56:53.931Z,4.73
2022-11-01T22:02:01.224Z,4.80
2022-11-01T22:07:08.042Z,5.30
2022-11-01T22:12:11.135Z,5.37
2022-11-01T22:17:15.596Z,4.50
2022-11-01T22:22:18.688Z,4.80
2022-11-01T22:27:21.797Z,5.60
2022-11-01T22:32:26.241Z,5.73
2022-11-01T22:37:31.510Z,8.30
2022-11-01T22:42:34.571Z,10.03
2022-11-01T22:47:39.050Z,9.80
2022-11-01T22:52:45.331Z,8.00
2022-11-01T22:57:50.327Z,7.43
2022-11-01T23:02:59.647Z,7.27
2022-11-01T23:08:14.391Z,6.20
2022-11-01T23:13:40.813Z,6.13
2022-11-01T23:18:45.351Z,5.40
2022-11-01T23:23:49.471Z,5.20
2022-11-01T23:28:55.416Z,5.00
2022-11-01T23:34:00.067Z,5.50
2022-11-01T23:39:05.799Z,5.27
2022-11-01T23:44:15.784Z,4.73
2022-11-01T23:49:23.474Z,4.90
2022-11-01T23:54:33.935Z,4.90
2022-11-01T23:59:37.835Z,4.60
